Time;durP1;ratioP1;P1;durP2;ratioP2;P2;SDS_P1;SDS_P2;PMS_P1;PMS_P2;Temp;Humidity;BMP_temperature;BMP_pressure;BME280_temperature;BME280_humidity;BME280_pressure;Samples;Min_cycle;Max_cycle;Signal;HPM_P1;HPM_P2
2022/06/20 00:02:19;;;;;;;12.55;2.50;;;;;;;;;;5010539;28;20188;-57
2022/06/20 00:04:46;;;;;;;6.30;1.88;;;;;;;;;;5012893;28;20544;-56
2022/06/20 00:07:13;;;;;;;9.02;2.03;;;;;;;;;;4995031;28;20542;-57
2022/06/20 00:09:41;;;;;;;11.40;2.38;;;;;;;;;;5012512;28;20307;-54
2022/06/20 00:12:07;;;;;;;11.38;2.05;;;;;;;;;;5009904;28;20257;-59
2022/06/20 00:14:34;;;;;;;9.90;2.10;;;;;;;;;;4995121;28;20179;-55
2022/06/20 00:17:02;;;;;;;9.48;1.92;;;;;;;;;;5012359;28;20220;-57
2022/06/20 00:19:28;;;;;;;11.95;2.13;;;;;;;;;;4994661;28;20513;-58
2022/06/20 00:21:54;;;;;;;10.45;2.47;;;;;;;;;;5011367;28;20191;-56
2022/06/20 00:24:20;;;;;;;10.50;2.20;;;;;;;;;;5012088;28;20184;-57
2022/06/20 00:26:46;;;;;;;8.20;2.00;;;;;;;;;;5011253;28;20259;-58
2022/06/20 00:29:12;;;;;;;6.68;2.10;;;;;;;;;;5012536;28;20223;-57
2022/06/20 00:31:39;;;;;;;11.57;2.30;;;;;;;;;;5009479;28;20247;-56
2022/06/20 00:34:05;;;;;;;8.23;1.90;;;;;;;;;;5012278;28;20247;-58
2022/06/20 00:36:31;;;;;;;6.32;1.83;;;;;;;;;;5012287;28;20177;-57
2022/06/20 00:38:57;;;;;;;10.00;1.90;;;;;;;;;;5012424;28;20247;-58
2022/06/20 00:41:26;;;;;;;7.13;1.90;;;;;;;;;;5016725;28;20195;-57
2022/06/20 00:43:53;;;;;;;13.63;2.20;;;;;;;;;;5014219;28;20209;-58
2022/06/20 00:46:32;;;;;;;9.40;2.30;;;;;;;;;;5033758;28;20233;-56
2022/06/20 00:49:21;;;;;;;10.65;2.20;;;;;;;;;;5035649;28;20176;-58
2022/06/20 00:51:59;;;;;;;8.50;2.17;;;;;;;;;;5004631;28;20258;-58
2022/06/20 00:54:29;;;;;;;9.48;2.10;;;;;;;;;;5015438;28;20200;-56
2022/06/20 00:56:59;;;;;;;8.70;2.00;;;;;;;;;;4982369;28;20625;-57
2022/06/20 00:59:36;;;;;;;10.55;1.83;;;;;;;;;;5014535;28;20184;-57
2022/06/20 01:02:06;;;;;;;10.68;1.95;;;;;;;;;;5014571;28;20250;-56
2022/06/20 01:04:37;;;;;;;7.65;2.00;;;;;;;;;;5016187;28;20184;-54
2022/06/20 01:07:06;;;;;;;9.20;2.00;;;;;;;;;;4998131;28;20191;-57
2022/06/20 01:09:35;;;;;;;11.07;2.00;;;;;;;;;;5015643;28;20239;-57
2022/06/20 01:12:04;;;;;;;9.10;2.08;;;;;;;;;;5013174;28;20873;-58
2022/06/20 01:14:37;;;;;;;7.03;1.95;;;;;;;;;;5015549;28;20215;-57
2022/06/20 01:17:11;;;;;;;7.82;2.00;;;;;;;;;;5015700;28;20180;-57
2022/06/20 01:19:37;;;;;;;5.10;1.60;;;;;;;;;;5015148;28;20221;-58
2022/06/20 01:22:07;;;;;;;7.53;1.85;;;;;;;;;;5013780;28;20181;-57
2022/06/20 01:24:39;;;;;;;9.73;2.05;;;;;;;;;;5014539;28;20196;-57
2022/06/20 01:27:41;;;;;;;10.85;2.28;;;;;;;;;;5019648;28;20635;-57
2022/06/20 01:30:08;;;;;;;6.95;1.77;;;;;;;;;;4952259;29;20704;-57
2022/06/20 01:32:35;;;;;;;8.55;2.03;;;;;;;;;;4999329;28;20243;-57
2022/06/20 01:35:02;;;;;;;7.18;1.90;;;;;;;;;;5014014;28;20286;-57
2022/06/20 01:37:29;;;;;;;12.43;2.13;;;;;;;;;;5015223;28;20193;-56
2022/06/20 01:39:59;;;;;;;7.80;2.10;;;;;;;;;;5015003;28;20180;-57
2022/06/20 01:42:28;;;;;;;11.00;2.05;;;;;;;;;;5014974;28;20191;-56
2022/06/20 01:45:01;;;;;;;7.50;1.67;;;;;;;;;;5013561;28;20259;-56
2022/06/20 01:47:27;;;;;;;7.22;1.77;;;;;;;;;;5019919;28;20259;-55
2022/06/20 01:49:55;;;;;;;9.25;2.10;;;;;;;;;;4997903;28;20177;-58
2022/06/20 01:52:21;;;;;;;6.30;1.67;;;;;;;;;;5014960;28;20224;-57
2022/06/20 01:54:51;;;;;;;8.63;1.90;;;;;;;;;;5012567;28;20191;-58
2022/06/20 01:57:17;;;;;;;10.98;2.00;;;;;;;;;;5007430;28;20181;-53
2022/06/20 01:59:51;;;;;;;7.45;2.25;;;;;;;;;;5014975;28;20172;-58
2022/06/20 02:02:18;;;;;;;11.90;2.10;;;;;;;;;;5013461;28;20190;-55
2022/06/20 02:04:44;;;;;;;6.13;1.67;;;;;;;;;;4996901;28;20205;-56
2022/06/20 02:07:12;;;;;;;9.02;1.80;;;;;;;;;;5013638;28;20192;-57
2022/06/20 02:09:39;;;;;;;12.43;2.08;;;;;;;;;;5014223;28;20192;-58
2022/06/20 02:12:06;;;;;;;7.30;1.60;;;;;;;;;;5014388;28;20207;-56
2022/06/20 02:14:42;;;;;;;9.15;1.80;;;;;;;;;;4998000;28;20193;-54
2022/06/20 02:17:13;;;;;;;12.05;2.13;;;;;;;;;;5015374;28;20195;-56
2022/06/20 02:19:44;;;;;;;9.77;2.00;;;;;;;;;;4998134;28;20555;-54
2022/06/20 02:22:11;;;;;;;7.35;2.17;;;;;;;;;;5034233;28;20180;-57
2022/06/20 02:24:42;;;;;;;8.35;2.08;;;;;;;;;;5033665;28;20176;-56
2022/06/20 02:27:12;;;;;;;7.90;2.33;;;;;;;;;;5024881;28;20294;-57
2022/06/20 02:29:38;;;;;;;5.28;1.83;;;;;;;;;;5032426;28;20261;-54
2022/06/20 02:32:04;;;;;;;13.88;2.05;;;;;;;;;;5025601;28;20220;-56
2022/06/20 02:34:30;;;;;;;13.20;2.03;;;;;;;;;;5014049;28;20311;-56
2022/06/20 02:36:58;;;;;;;12.40;2.45;;;;;;;;;;5012898;28;20644;-58
2022/06/20 02:39:25;;;;;;;7.28;2.40;;;;;;;;;;5012758;28;20181;-54
2022/06/20 02:41:56;;;;;;;11.77;2.47;;;;;;;;;;5013684;28;20184;-57
2022/06/20 02:44:23;;;;;;;10.40;2.10;;;;;;;;;;5012953;28;20581;-56
2022/06/20 02:46:51;;;;;;;12.73;2.50;;;;;;;;;;5014037;28;20169;-57
2022/06/20 02:49:18;;;;;;;9.70;2.30;;;;;;;;;;4995235;28;20255;-56
2022/06/20 02:51:50;;;;;;;9.85;2.60;;;;;;;;;;5013788;28;20243;-57
2022/06/20 02:54:19;;;;;;;10.90;2.72;;;;;;;;;;5013156;28;20191;-56
2022/06/20 02:56:51;;;;;;;9.32;2.40;;;;;;;;;;5013642;28;20184;-56
2022/06/20 02:59:33;;;;;;;9.40;2.22;;;;;;;;;;5010833;28;20196;-56
2022/06/20 03:02:02;;;;;;;8.52;2.50;;;;;;;;;;5013666;28;20254;-57
2022/06/20 03:04:30;;;;;;;11.20;2.75;;;;;;;;;;5013227;28;20190;-57
2022/06/20 03:06:59;;;;;;;8.50;2.42;;;;;;;;;;5013341;28;20188;-57
2022/06/20 03:09:27;;;;;;;12.35;2.70;;;;;;;;;;5012372;28;20185;-56
2022/06/20 03:11:53;;;;;;;12.60;2.70;;;;;;;;;;5013191;28;20667;-56
2022/06/20 03:14:21;;;;;;;15.10;3.35;;;;;;;;;;5013327;28;20188;-56
2022/06/20 03:16:48;;;;;;;11.98;2.45;;;;;;;;;;5013455;28;20180;-57
2022/06/20 03:19:19;;;;;;;10.13;2.72;;;;;;;;;;5010601;28;20265;-55
2022/06/20 03:21:47;;;;;;;12.65;2.80;;;;;;;;;;4995694;28;20624;-56
2022/06/20 03:24:15;;;;;;;12.65;2.92;;;;;;;;;;4995301;28;20246;-55
2022/06/20 03:26:42;;;;;;;10.80;2.63;;;;;;;;;;5013369;28;20173;-58
2022/06/20 03:29:13;;;;;;;11.05;2.85;;;;;;;;;;4993003;28;20188;-55
2022/06/20 03:31:39;;;;;;;9.30;2.40;;;;;;;;;;5012092;28;20698;-58
2022/06/20 03:34:07;;;;;;;11.55;2.80;;;;;;;;;;5012880;28;20268;-56
2022/06/20 03:36:34;;;;;;;7.95;2.67;;;;;;;;;;5024390;28;20194;-57
2022/06/20 03:39:01;;;;;;;9.93;2.55;;;;;;;;;;5011947;28;20651;-55
2022/06/20 03:41:27;;;;;;;10.18;2.83;;;;;;;;;;4995163;28;20193;-56
2022/06/20 03:44:12;;;;;;;11.73;3.15;;;;;;;;;;4995336;28;20180;-56
2022/06/20 03:46:53;;;;;;;14.27;2.90;;;;;;;;;;5013004;28;20291;-56
2022/06/20 03:49:28;;;;;;;8.45;3.05;;;;;;;;;;4994635;28;20180;-55
2022/06/20 03:51:56;;;;;;;11.88;3.20;;;;;;;;;;5008129;28;20228;-57
2022/06/20 03:54:26;;;;;;;18.35;3.88;;;;;;;;;;5013127;28;20203;-59
2022/06/20 03:57:00;;;;;;;17.58;4.50;;;;;;;;;;5011584;28;20655;-55
2022/06/20 03:59:31;;;;;;;16.65;4.00;;;;;;;;;;5012629;28;20230;-57
2022/06/20 04:01:57;;;;;;;10.70;3.88;;;;;;;;;;5009936;28;20288;-55
2022/06/20 04:04:28;;;;;;;14.25;3.60;;;;;;;;;;4995343;28;20189;-58
2022/06/20 04:06:58;;;;;;;14.50;3.65;;;;;;;;;;4995854;28;20177;-57
2022/06/20 04:12:40;;;;;;;12.05;3.75;;;;;;;;;;5013463;28;20233;-53
2022/06/20 04:15:19;;;;;;;11.95;4.15;;;;;;;;;;5012720;28;20342;-59
2022/06/20 04:20:36;;;;;;;11.60;3.80;;;;;;;;;;5011901;28;20188;-58
2022/06/20 04:23:03;;;;;;;12.88;3.83;;;;;;;;;;5008107;28;20262;-57
2022/06/20 04:25:36;;;;;;;12.40;3.90;;;;;;;;;;5015756;28;20179;-54
2022/06/20 04:28:08;;;;;;;13.32;3.53;;;;;;;;;;5016296;28;20180;-57
2022/06/20 04:30:40;;;;;;;12.55;3.72;;;;;;;;;;4997947;28;20648;-57
2022/06/20 04:33:16;;;;;;;12.45;3.90;;;;;;;;;;5016416;28;20719;-56
2022/06/20 04:35:51;;;;;;;16.38;3.80;;;;;;;;;;5016137;28;20191;-58
2022/06/20 04:38:23;;;;;;;14.70;3.65;;;;;;;;;;5016378;28;20632;-55
2022/06/20 04:40:56;;;;;;;12.93;3.33;;;;;;;;;;5005764;28;20650;-58
2022/06/20 04:43:40;;;;;;;13.00;3.88;;;;;;;;;;5007694;28;20177;-56
2022/06/20 04:46:27;;;;;;;14.75;3.70;;;;;;;;;;5016391;28;20179;-57
2022/06/20 04:48:53;;;;;;;12.90;3.95;;;;;;;;;;5015655;28;20189;-57
2022/06/20 04:51:23;;;;;;;10.88;3.50;;;;;;;;;;4997133;28;20232;-58
2022/06/20 04:53:50;;;;;;;10.10;3.95;;;;;;;;;;5014333;28;20628;-58
2022/06/20 04:56:25;;;;;;;12.85;3.88;;;;;;;;;;5008157;28;20638;-58
2022/06/20 04:58:53;;;;;;;12.50;4.20;;;;;;;;;;5004121;28;20187;-58
2022/06/20 05:01:20;;;;;;;12.73;3.97;;;;;;;;;;5004476;28;20184;-54
2022/06/20 05:03:48;;;;;;;14.63;4.30;;;;;;;;;;4989694;28;20177;-58
2022/06/20 05:06:19;;;;;;;17.42;4.03;;;;;;;;;;4996741;28;20180;-56
2022/06/20 05:08:49;;;;;;;13.75;3.85;;;;;;;;;;4997710;28;20176;-58
2022/06/20 05:11:22;;;;;;;17.13;4.30;;;;;;;;;;5020009;28;20235;-58
2022/06/20 05:13:55;;;;;;;15.30;4.22;;;;;;;;;;5015429;28;20184;-57
2022/06/20 05:16:24;;;;;;;19.48;4.72;;;;;;;;;;4998551;28;20188;-57
2022/06/20 05:18:56;;;;;;;13.70;4.00;;;;;;;;;;4982193;28;20184;-57
2022/06/20 05:21:27;;;;;;;20.50;4.40;;;;;;;;;;5015153;28;20236;-59
2022/06/20 05:23:55;;;;;;;14.57;3.97;;;;;;;;;;5013087;28;20611;-57
2022/06/20 05:26:23;;;;;;;14.40;3.63;;;;;;;;;;5015225;28;20169;-56
2022/06/20 05:28:50;;;;;;;19.35;4.35;;;;;;;;;;5015494;28;20204;-57
2022/06/20 05:31:29;;;;;;;20.98;4.20;;;;;;;;;;5015495;28;20203;-58
2022/06/20 05:33:58;;;;;;;17.17;3.95;;;;;;;;;;5012667;28;20193;-59
2022/06/20 05:36:26;;;;;;;16.80;3.80;;;;;;;;;;5015177;28;20169;-58
2022/06/20 05:39:05;;;;;;;13.35;3.88;;;;;;;;;;5014774;28;20188;-58
2022/06/20 05:41:31;;;;;;;8.35;3.55;;;;;;;;;;4997720;28;20216;-57
2022/06/20 05:43:57;;;;;;;18.30;4.43;;;;;;;;;;5012348;28;20276;-58
2022/06/20 05:46:23;;;;;;;11.20;3.65;;;;;;;;;;4997715;28;20196;-58
2022/06/20 05:48:52;;;;;;;18.63;3.95;;;;;;;;;;5013853;28;20233;-57
2022/06/20 05:51:20;;;;;;;11.85;3.63;;;;;;;;;;5034384;28;20262;-58
2022/06/20 05:53:49;;;;;;;10.07;3.67;;;;;;;;;;5034077;28;20664;-54
2022/06/20 05:56:17;;;;;;;17.20;3.72;;;;;;;;;;5013195;28;20330;-57
2022/06/20 05:58:44;;;;;;;15.77;4.35;;;;;;;;;;5009547;28;20185;-54
2022/06/20 06:01:14;;;;;;;13.40;3.67;;;;;;;;;;4996701;28;20196;-55
2022/06/20 06:03:47;;;;;;;17.17;3.47;;;;;;;;;;5014712;28;20307;-57
2022/06/20 06:06:25;;;;;;;16.95;3.58;;;;;;;;;;4996264;28;20217;-57
2022/06/20 06:08:53;;;;;;;12.43;3.55;;;;;;;;;;5013912;28;20191;-57
2022/06/20 06:11:25;;;;;;;16.52;4.68;;;;;;;;;;5030767;28;20287;-54
2022/06/20 06:13:58;;;;;;;14.82;3.80;;;;;;;;;;5017457;28;20196;-57
2022/06/20 06:19:25;;;;;;;14.25;3.75;;;;;;;;;;5019036;28;20192;-56
2022/06/20 06:21:53;;;;;;;17.80;3.60;;;;;;;;;;5012835;28;20660;-56
2022/06/20 06:24:21;;;;;;;11.82;3.55;;;;;;;;;;5013139;28;20207;-56
2022/06/20 06:26:49;;;;;;;11.57;3.65;;;;;;;;;;5013407;28;20188;-55
2022/06/20 06:29:21;;;;;;;14.02;3.95;;;;;;;;;;5029180;28;20184;-56
2022/06/20 06:31:49;;;;;;;18.27;3.83;;;;;;;;;;5013321;28;20211;-54
2022/06/20 06:34:30;;;;;;;13.20;3.97;;;;;;;;;;5013904;28;20199;-56
2022/06/20 06:37:01;;;;;;;10.32;3.30;;;;;;;;;;5013851;28;20543;-56
2022/06/20 06:40:03;;;;;;;15.50;3.60;;;;;;;;;;5026707;28;20183;-56
2022/06/20 06:42:29;;;;;;;12.77;4.00;;;;;;;;;;4933260;29;20812;-56
2022/06/20 06:44:55;;;;;;;18.77;3.95;;;;;;;;;;4982143;28;20239;-55
2022/06/20 06:47:30;;;;;;;11.50;3.38;;;;;;;;;;5009934;28;20189;-53
2022/06/20 06:49:59;;;;;;;18.00;3.83;;;;;;;;;;5018907;28;20541;-56
2022/06/20 06:52:34;;;;;;;15.60;3.13;;;;;;;;;;5018700;28;20267;-56
2022/06/20 06:55:03;;;;;;;16.55;4.00;;;;;;;;;;5032916;28;20453;-54
2022/06/20 06:57:36;;;;;;;14.93;3.50;;;;;;;;;;5033470;28;20191;-57
2022/06/20 07:00:05;;;;;;;8.63;3.30;;;;;;;;;;5025528;28;20266;-54
2022/06/20 07:02:52;;;;;;;20.13;3.42;;;;;;;;;;4996598;28;20188;-55
2022/06/20 07:05:35;;;;;;;14.45;3.20;;;;;;;;;;5013671;28;20667;-54
2022/06/20 07:08:20;;;;;;;12.73;3.42;;;;;;;;;;5011539;28;20185;-56
2022/06/20 07:10:55;;;;;;;17.45;3.72;;;;;;;;;;5022504;28;20211;-54
2022/06/20 07:13:40;;;;;;;13.70;3.33;;;;;;;;;;5020466;28;20212;-56
2022/06/20 07:16:12;;;;;;;12.00;3.03;;;;;;;;;;5013534;28;20240;-55
2022/06/20 07:18:41;;;;;;;13.90;3.50;;;;;;;;;;5022966;28;20231;-55
2022/06/20 07:21:09;;;;;;;10.23;3.20;;;;;;;;;;4996520;28;20716;-55
2022/06/20 07:23:35;;;;;;;13.35;3.38;;;;;;;;;;5012664;28;20648;-56
2022/06/20 07:26:01;;;;;;;13.93;3.10;;;;;;;;;;5014209;28;20169;-53
2022/06/20 07:28:34;;;;;;;8.45;2.40;;;;;;;;;;5011742;28;20189;-57
2022/06/20 07:31:10;;;;;;;8.60;3.00;;;;;;;;;;5021108;28;20211;-55
2022/06/20 07:33:42;;;;;;;11.43;3.00;;;;;;;;;;5032827;28;20194;-55
2022/06/20 07:36:09;;;;;;;12.55;2.97;;;;;;;;;;5033175;28;20617;-57
2022/06/20 07:38:46;;;;;;;11.93;3.03;;;;;;;;;;5013802;28;20181;-57
2022/06/20 07:41:21;;;;;;;17.60;7.20;;;;;;;;;;5013819;28;20663;-56
2022/06/20 07:43:57;;;;;;;8.25;3.65;;;;;;;;;;4994567;28;20191;-57
2022/06/20 07:46:30;;;;;;;12.25;2.83;;;;;;;;;;5013156;28;20183;-57
2022/06/20 07:48:58;;;;;;;13.68;3.20;;;;;;;;;;5011750;28;20207;-57
2022/06/20 07:51:29;;;;;;;10.52;2.65;;;;;;;;;;5015548;28;20239;-58
2022/06/20 07:54:06;;;;;;;11.82;3.28;;;;;;;;;;5014366;28;20179;-59
2022/06/20 07:56:37;;;;;;;10.88;3.40;;;;;;;;;;5012056;28;20172;-58
2022/06/20 07:59:12;;;;;;;8.45;2.45;;;;;;;;;;5022912;28;20265;-59
2022/06/20 08:02:06;;;;;;;15.63;3.25;;;;;;;;;;4994786;28;20177;-60
2022/06/20 08:04:33;;;;;;;13.93;3.65;;;;;;;;;;5010894;28;20196;-58
2022/06/20 08:07:14;;;;;;;9.18;2.75;;;;;;;;;;5012521;28;20176;-58
2022/06/20 08:09:43;;;;;;;8.80;2.50;;;;;;;;;;5010927;28;20296;-63
2022/06/20 08:12:18;;;;;;;10.57;2.90;;;;;;;;;;4993700;28;20223;-58
2022/06/20 08:14:44;;;;;;;8.60;2.55;;;;;;;;;;5012155;28;20214;-59
2022/06/20 08:17:11;;;;;;;9.00;2.92;;;;;;;;;;5012578;28;20203;-60
2022/06/20 08:19:39;;;;;;;9.82;2.75;;;;;;;;;;5011292;28;20220;-58
2022/06/20 08:22:25;;;;;;;10.80;3.13;;;;;;;;;;5012478;28;20184;-56
2022/06/20 08:24:51;;;;;;;14.20;2.90;;;;;;;;;;5011217;28;20195;-58
2022/06/20 08:27:36;;;;;;;8.77;2.63;;;;;;;;;;4993180;28;20191;-58
2022/06/20 08:30:07;;;;;;;12.27;2.78;;;;;;;;;;5008299;28;20665;-59
2022/06/20 08:32:45;;;;;;;9.10;2.70;;;;;;;;;;5010610;28;20248;-60
2022/06/20 08:35:22;;;;;;;15.38;2.90;;;;;;;;;;4999313;28;20580;-59
2022/06/20 08:37:51;;;;;;;9.93;2.72;;;;;;;;;;5010481;28;20642;-59
2022/06/20 08:40:26;;;;;;;13.13;2.63;;;;;;;;;;5011165;28;20223;-60
2022/06/20 08:43:03;;;;;;;12.68;2.70;;;;;;;;;;5012258;28;20176;-56
2022/06/20 08:45:41;;;;;;;10.38;2.92;;;;;;;;;;5012244;28;20188;-57
2022/06/20 08:48:08;;;;;;;8.10;2.80;;;;;;;;;;5012486;28;20203;-58
2022/06/20 08:50:52;;;;;;;9.90;2.50;;;;;;;;;;5012190;28;20267;-59
2022/06/20 08:53:19;;;;;;;9.20;2.92;;;;;;;;;;5008705;28;20244;-58
2022/06/20 08:56:00;;;;;;;15.10;3.47;;;;;;;;;;5012307;28;20220;-58
2022/06/20 08:58:26;;;;;;;15.00;2.90;;;;;;;;;;5011753;28;20181;-58
2022/06/20 09:00:52;;;;;;;16.45;2.83;;;;;;;;;;5011252;28;20250;-60
2022/06/20 09:03:21;;;;;;;10.45;2.65;;;;;;;;;;5008622;28;20271;-58
2022/06/20 09:06:01;;;;;;;9.10;2.78;;;;;;;;;;5011443;28;20617;-57
2022/06/20 09:08:46;;;;;;;10.55;2.60;;;;;;;;;;5017949;28;20271;-58
2022/06/20 09:11:12;;;;;;;10.98;2.38;;;;;;;;;;4996124;28;20228;-57
2022/06/20 09:13:56;;;;;;;11.38;2.70;;;;;;;;;;5015317;28;20188;-57
2022/06/20 09:16:26;;;;;;;12.85;3.15;;;;;;;;;;5034190;28;20230;-58
2022/06/20 09:18:52;;;;;;;8.75;2.40;;;;;;;;;;5018249;28;20173;-58
2022/06/20 09:21:18;;;;;;;8.98;2.38;;;;;;;;;;5013986;28;20684;-57
2022/06/20 09:23:51;;;;;;;12.32;3.10;;;;;;;;;;5015359;28;20169;-54
2022/06/20 09:26:23;;;;;;;12.02;2.70;;;;;;;;;;5010512;28;20686;-56
2022/06/20 09:28:58;;;;;;;13.13;2.95;;;;;;;;;;5035534;28;20251;-54
2022/06/20 09:31:29;;;;;;;14.55;3.10;;;;;;;;;;5018682;28;20204;-56
2022/06/20 09:34:14;;;;;;;16.88;3.30;;;;;;;;;;4981968;28;20188;-56
2022/06/20 09:36:58;;;;;;;14.93;3.15;;;;;;;;;;5015449;28;20632;-59
2022/06/20 09:39:50;;;;;;;10.35;2.88;;;;;;;;;;5029817;28;20182;-59
2022/06/20 09:42:21;;;;;;;9.65;2.90;;;;;;;;;;4990043;28;20657;-57
2022/06/20 09:44:56;;;;;;;14.57;2.92;;;;;;;;;;5013966;28;20181;-56
2022/06/20 09:47:41;;;;;;;12.27;2.72;;;;;;;;;;5017630;28;20168;-56
2022/06/20 09:50:13;;;;;;;13.25;2.75;;;;;;;;;;5035095;28;20178;-57
2022/06/20 09:52:53;;;;;;;10.80;3.30;;;;;;;;;;5027486;28;20234;-55
2022/06/20 09:55:25;;;;;;;16.77;3.30;;;;;;;;;;5015991;28;20191;-58
2022/06/20 09:57:59;;;;;;;11.25;3.00;;;;;;;;;;5025529;28;20190;-57
2022/06/20 10:00:37;;;;;;;13.90;3.38;;;;;;;;;;5017205;28;20198;-55
2022/06/20 10:03:29;;;;;;;10.50;2.83;;;;;;;;;;5017017;28;20187;-55
2022/06/20 10:06:08;;;;;;;14.82;2.90;;;;;;;;;;4986501;28;20646;-56
2022/06/20 10:08:43;;;;;;;11.38;2.80;;;;;;;;;;5010866;28;20180;-57
2022/06/20 10:11:15;;;;;;;12.80;3.00;;;;;;;;;;4999095;28;20219;-58
2022/06/20 10:13:41;;;;;;;10.70;3.15;;;;;;;;;;5012775;28;20189;-62
2022/06/20 10:16:18;;;;;;;12.13;3.30;;;;;;;;;;4980849;28;20242;-59
2022/06/20 10:19:03;;;;;;;8.95;2.58;;;;;;;;;;4997079;28;20325;-57
2022/06/20 10:21:33;;;;;;;8.50;2.83;;;;;;;;;;5014373;28;20648;-56
2022/06/20 10:24:13;;;;;;;11.32;3.20;;;;;;;;;;5013451;28;20180;-57
2022/06/20 10:26:54;;;;;;;9.38;2.75;;;;;;;;;;5015100;28;20240;-54
2022/06/20 10:29:28;;;;;;;8.55;2.50;;;;;;;;;;4997183;28;20260;-55
2022/06/20 10:32:13;;;;;;;10.63;2.30;;;;;;;;;;4977705;28;20304;-53
2022/06/20 10:34:48;;;;;;;12.52;2.63;;;;;;;;;;4978690;28;20189;-57
2022/06/20 10:37:22;;;;;;;13.50;3.15;;;;;;;;;;4995723;28;20231;-55
2022/06/20 10:39:48;;;;;;;18.15;3.30;;;;;;;;;;5009897;28;20196;-57
2022/06/20 10:42:27;;;;;;;13.40;2.95;;;;;;;;;;5014643;28;20185;-54
2022/06/20 10:45:05;;;;;;;11.50;2.70;;;;;;;;;;5010900;28;20194;-54
2022/06/20 10:47:52;;;;;;;12.30;2.83;;;;;;;;;;5005522;28;20184;-60
2022/06/20 10:50:41;;;;;;;13.63;3.38;;;;;;;;;;4973827;28;20188;-55
2022/06/20 10:53:13;;;;;;;13.07;2.97;;;;;;;;;;5004979;28;20279;-56
2022/06/20 10:55:44;;;;;;;12.50;3.25;;;;;;;;;;4992702;28;20189;-54
2022/06/20 10:58:19;;;;;;;15.15;3.15;;;;;;;;;;5013462;28;20184;-57
2022/06/20 11:00:49;;;;;;;11.77;3.40;;;;;;;;;;5006751;28;20640;-53
2022/06/20 11:03:27;;;;;;;11.23;3.15;;;;;;;;;;5009241;28;20169;-55
2022/06/20 11:05:53;;;;;;;14.35;3.20;;;;;;;;;;4994679;28;20676;-57
2022/06/20 11:08:29;;;;;;;11.38;3.03;;;;;;;;;;4994127;28;20649;-56
2022/06/20 11:11:14;;;;;;;10.48;2.85;;;;;;;;;;5016580;28;20223;-57
2022/06/20 11:13:45;;;;;;;16.25;3.45;;;;;;;;;;4998219;28;20260;-58
2022/06/20 11:16:14;;;;;;;11.43;3.03;;;;;;;;;;5002721;28;20203;-57
2022/06/20 11:18:56;;;;;;;13.82;3.42;;;;;;;;;;5012884;28;20325;-58
2022/06/20 11:21:37;;;;;;;14.70;3.42;;;;;;;;;;4980515;28;20275;-56
2022/06/20 11:24:22;;;;;;;13.85;3.10;;;;;;;;;;5011600;28;20199;-53
2022/06/20 11:26:55;;;;;;;12.70;3.17;;;;;;;;;;5013580;28;20263;-57
2022/06/20 11:29:28;;;;;;;16.45;3.55;;;;;;;;;;5013607;28;20180;-57
2022/06/20 11:32:13;;;;;;;14.68;3.28;;;;;;;;;;5012072;28;20251;-57
2022/06/20 11:34:58;;;;;;;16.90;3.60;;;;;;;;;;5011964;28;20184;-56
2022/06/20 11:37:33;;;;;;;11.15;2.75;;;;;;;;;;5015759;28;20193;-56
2022/06/20 11:40:07;;;;;;;12.60;2.95;;;;;;;;;;5032863;28;20171;-55
2022/06/20 11:42:39;;;;;;;15.70;3.33;;;;;;;;;;5033183;28;20184;-55
2022/06/20 11:45:05;;;;;;;10.00;3.22;;;;;;;;;;5018837;28;20195;-58
2022/06/20 11:47:55;;;;;;;13.73;3.03;;;;;;;;;;5018480;28;20176;-55
2022/06/20 11:50:30;;;;;;;10.75;3.10;;;;;;;;;;5016246;28;20207;-56
2022/06/20 11:53:00;;;;;;;10.00;3.15;;;;;;;;;;5025613;28;20232;-56
2022/06/20 11:55:36;;;;;;;7.78;2.97;;;;;;;;;;4994323;28;20184;-53
2022/06/20 11:58:12;;;;;;;13.68;3.08;;;;;;;;;;5013473;28;20458;-56
2022/06/20 12:00:41;;;;;;;12.57;3.42;;;;;;;;;;5013401;28;20176;-56
2022/06/20 12:03:08;;;;;;;11.88;2.50;;;;;;;;;;5010717;28;20181;-55
2022/06/20 12:05:36;;;;;;;11.30;3.20;;;;;;;;;;5002577;28;20188;-57
2022/06/20 12:08:05;;;;;;;9.88;2.67;;;;;;;;;;5012918;28;20199;-57
2022/06/20 12:10:43;;;;;;;10.70;2.97;;;;;;;;;;5013043;28;20188;-55
2022/06/20 12:13:19;;;;;;;9.27;2.65;;;;;;;;;;5012948;28;20216;-56
2022/06/20 12:16:14;;;;;;;9.77;2.65;;;;;;;;;;4993010;28;20176;-55
2022/06/20 12:24:32;;;;;;;6.10;2.55;;;;;;;;;;5012871;28;20255;-55
2022/06/20 12:26:58;;;;;;;10.65;2.40;;;;;;;;;;5011481;28;20189;-56
2022/06/20 12:29:26;;;;;;;12.52;2.70;;;;;;;;;;5012768;28;20180;-55
2022/06/20 12:31:54;;;;;;;10.80;2.55;;;;;;;;;;4994493;28;20735;-55
2022/06/20 12:34:28;;;;;;;6.80;2.40;;;;;;;;;;5012990;28;20632;-55
2022/06/20 12:37:03;;;;;;;9.63;2.42;;;;;;;;;;5010133;28;20172;-57
2022/06/20 12:39:38;;;;;;;7.88;2.75;;;;;;;;;;5012198;28;20188;-57
2022/06/20 12:42:07;;;;;;;11.48;2.45;;;;;;;;;;5012501;28;20307;-56
2022/06/20 12:44:33;;;;;;;8.20;2.45;;;;;;;;;;4998544;28;20633;-54
2022/06/20 12:47:07;;;;;;;4.68;2.15;;;;;;;;;;5014326;28;20264;-54
2022/06/20 12:49:37;;;;;;;9.80;2.38;;;;;;;;;;5014425;28;20554;-57
2022/06/20 12:52:26;;;;;;;9.57;2.22;;;;;;;;;;5016036;28;20236;-54
2022/06/20 12:55:10;;;;;;;9.38;2.70;;;;;;;;;;5001235;28;20187;-54
2022/06/20 12:58:03;;;;;;;7.07;2.13;;;;;;;;;;5019992;28;20817;-57
2022/06/20 13:00:46;;;;;;;9.90;2.15;;;;;;;;;;4987635;28;20192;-56
2022/06/20 13:03:31;;;;;;;6.90;1.67;;;;;;;;;;5027346;28;20175;-57
2022/06/20 13:06:17;;;;;;;6.38;2.20;;;;;;;;;;5018472;28;20184;-55
2022/06/20 13:08:50;;;;;;;8.95;2.28;;;;;;;;;;5015897;28;20552;-60
2022/06/20 13:11:27;;;;;;;9.18;2.35;;;;;;;;;;5011790;28;20702;-56
2022/06/20 13:14:00;;;;;;;9.70;2.30;;;;;;;;;;5015778;28;20256;-56
2022/06/20 13:16:32;;;;;;;7.25;2.20;;;;;;;;;;5013457;28;20188;-57
2022/06/20 13:19:13;;;;;;;7.03;2.40;;;;;;;;;;5015751;28;20185;-57
2022/06/20 13:21:39;;;;;;;7.85;2.38;;;;;;;;;;5013528;28;20239;-54
2022/06/20 13:24:11;;;;;;;8.02;2.17;;;;;;;;;;5015427;28;20200;-57
2022/06/20 13:26:40;;;;;;;6.53;2.03;;;;;;;;;;5013982;28;20258;-56
2022/06/20 13:29:09;;;;;;;10.35;2.22;;;;;;;;;;5019113;28;20180;-58
2022/06/20 13:31:42;;;;;;;8.02;2.30;;;;;;;;;;5011519;28;20731;-58
2022/06/20 13:34:14;;;;;;;10.05;2.72;;;;;;;;;;5001116;28;20191;-56
2022/06/20 13:36:52;;;;;;;9.63;2.40;;;;;;;;;;5014714;28;20171;-59
2022/06/20 13:39:39;;;;;;;11.60;2.50;;;;;;;;;;5004363;28;20203;-56
2022/06/20 13:42:25;;;;;;;11.98;2.70;;;;;;;;;;5015199;28;20330;-56
2022/06/20 13:44:55;;;;;;;10.77;2.92;;;;;;;;;;4992427;28;20572;-56
2022/06/20 13:47:27;;;;;;;9.75;2.58;;;;;;;;;;5016293;28;20636;-57
2022/06/20 13:50:13;;;;;;;6.25;2.30;;;;;;;;;;5016755;28;20216;-57
2022/06/20 13:52:43;;;;;;;9.43;2.40;;;;;;;;;;5014383;28;20240;-57
2022/06/20 13:55:27;;;;;;;6.70;2.30;;;;;;;;;;5014548;28;20181;-54
2022/06/20 13:57:57;;;;;;;10.15;2.60;;;;;;;;;;5016014;28;20169;-59
2022/06/20 14:00:24;;;;;;;7.40;2.35;;;;;;;;;;5015486;28;20200;-53
2022/06/20 14:03:09;;;;;;;5.30;2.20;;;;;;;;;;5009906;28;20185;-56
2022/06/20 14:05:36;;;;;;;5.38;2.03;;;;;;;;;;5004781;28;20181;-59
2022/06/20 14:08:06;;;;;;;9.77;2.47;;;;;;;;;;5004617;28;20188;-58
2022/06/20 14:10:34;;;;;;;7.80;2.20;;;;;;;;;;5015457;28;20250;-54
2022/06/20 14:13:02;;;;;;;6.95;2.58;;;;;;;;;;5015375;28;20196;-55
2022/06/20 14:15:38;;;;;;;7.32;2.45;;;;;;;;;;4980214;28;20187;-56
2022/06/20 14:18:06;;;;;;;7.53;2.25;;;;;;;;;;4995897;28;20311;-53
2022/06/20 14:20:36;;;;;;;4.95;1.98;;;;;;;;;;5013920;28;20271;-54
2022/06/20 14:23:04;;;;;;;6.43;2.03;;;;;;;;;;5015845;28;20311;-53
2022/06/20 14:25:39;;;;;;;4.22;2.13;;;;;;;;;;4995533;28;20184;-54
2022/06/20 14:28:25;;;;;;;5.65;2.42;;;;;;;;;;4978804;28;20192;-56
2022/06/20 14:30:58;;;;;;;5.75;1.85;;;;;;;;;;5011467;28;20267;-56
2022/06/20 14:33:28;;;;;;;6.05;2.05;;;;;;;;;;5012220;28;20184;-56
2022/06/20 14:36:30;;;;;;;5.55;2.10;;;;;;;;;;4999158;28;20193;-56
2022/06/20 14:39:02;;;;;;;7.90;2.45;;;;;;;;;;4968464;28;20759;-58
2022/06/20 14:41:39;;;;;;;9.07;3.35;;;;;;;;;;5000120;28;20644;-55
2022/06/20 14:44:15;;;;;;;6.78;2.22;;;;;;;;;;4997186;28;20189;-56
2022/06/20 14:46:56;;;;;;;7.68;2.28;;;;;;;;;;5011231;28;20241;-57
2022/06/20 14:49:28;;;;;;;10.38;2.53;;;;;;;;;;5013500;28;20192;-57
2022/06/20 14:52:25;;;;;;;10.38;2.40;;;;;;;;;;4996269;28;20243;-56
2022/06/20 14:54:54;;;;;;;8.65;2.13;;;;;;;;;;4996812;28;20255;-55
2022/06/20 14:57:20;;;;;;;10.55;2.60;;;;;;;;;;5013693;28;20199;-56
2022/06/20 14:59:46;;;;;;;8.60;2.33;;;;;;;;;;5013792;28;20189;-58
2022/06/20 15:02:15;;;;;;;7.57;2.38;;;;;;;;;;5014377;28;20209;-60
2022/06/20 15:05:02;;;;;;;9.25;2.90;;;;;;;;;;5013596;28;20172;-61
2022/06/20 15:07:43;;;;;;;7.57;2.47;;;;;;;;;;5010006;28;20177;-57
2022/06/20 15:10:27;;;;;;;8.40;2.97;;;;;;;;;;4996304;28;20259;-57
2022/06/20 15:12:56;;;;;;;7.20;2.60;;;;;;;;;;5010544;28;20255;-57
2022/06/20 15:15:22;;;;;;;8.00;2.58;;;;;;;;;;5013830;28;20646;-57
2022/06/20 15:17:57;;;;;;;7.20;2.30;;;;;;;;;;5009791;28;20181;-59
2022/06/20 15:20:32;;;;;;;8.07;2.28;;;;;;;;;;5010864;28;20184;-64
2022/06/20 15:23:15;;;;;;;9.02;2.65;;;;;;;;;;4976769;28;20280;-58
2022/06/20 15:25:45;;;;;;;7.25;2.28;;;;;;;;;;4993352;28;20522;-60